createdAt,value
2018-09-29T00:00:31.822Z,2.08
2018-09-29T00:03:02.012Z,2.02
2018-09-29T00:05:32.126Z,2.15
2018-09-29T00:08:02.195Z,2.10
2018-09-29T00:10:32.255Z,2.25
2018-09-29T00:13:02.377Z,2.30
2018-09-29T00:15:32.607Z,2.17
2018-09-29T00:18:02.683Z,2.17
2018-09-29T00:20:32.779Z,1.90
2018-09-29T00:23:02.957Z,2.30
2018-09-29T00:25:33.061Z,2.17
2018-09-29T00:28:03.319Z,2.10
2018-09-29T00:30:33.666Z,2.30
2018-09-29T00:33:03.764Z,1.92
2018-09-29T00:35:33.807Z,1.82
2018-09-29T00:38:03.842Z,1.65
2018-09-29T00:40:33.933Z,2.02
2018-09-29T00:43:03.950Z,2.08
2018-09-29T00:45:34.015Z,1.87
2018-09-29T00:48:04.184Z,1.67
2018-09-29T00:50:34.239Z,1.85
2018-09-29T00:53:04.422Z,1.95
2018-09-29T00:55:34.531Z,1.98
2018-09-29T00:58:04.610Z,1.95
2018-09-29T01:00:34.931Z,1.70
2018-09-29T01:03:05.047Z,1.90
2018-09-29T01:05:35.215Z,2.20
2018-09-29T01:08:05.371Z,2.67
2018-09-29T01:10:35.427Z,1.60
2018-09-29T01:13:05.428Z,2.00
2018-09-29T01:15:35.454Z,1.85
2018-09-29T01:18:05.616Z,2.40
2018-09-29T01:20:41.996Z,2.08
2018-09-29T01:23:12.077Z,1.77
2018-09-29T01:25:42.053Z,2.25
2018-09-29T01:28:12.105Z,2.30
2018-09-29T01:30:42.057Z,2.00
2018-09-29T01:33:12.274Z,2.02
2018-09-29T01:35:42.314Z,2.60
2018-09-29T01:38:12.394Z,2.12
2018-09-29T01:40:42.475Z,2.42
2018-09-29T01:43:12.614Z,2.17
2018-09-29T01:45:42.652Z,2.15
2018-09-29T01:48:12.755Z,2.27
2018-09-29T01:50:42.855Z,2.47
2018-09-29T01:53:13.090Z,2.30
2018-09-29T01:55:43.225Z,2.12
2018-09-29T01:58:13.284Z,2.20
2018-09-29T02:00:43.360Z,2.70
2018-09-29T02:03:13.766Z,2.08
2018-09-29T02:05:43.834Z,1.92
2018-09-29T02:08:14.015Z,2.22
2018-09-29T02:10:44.260Z,2.77
2018-09-29T02:13:14.455Z,2.22
2018-09-29T02:15:44.569Z,2.12
2018-09-29T02:18:14.735Z,2.25
2018-09-29T02:20:44.815Z,2.27
2018-09-29T02:23:14.869Z,2.33
2018-09-29T02:25:44.919Z,2.77
2018-09-29T02:28:15.026Z,2.45
2018-09-29T02:30:45.165Z,2.35
2018-09-29T02:33:15.372Z,2.50
2018-09-29T02:35:45.431Z,2.15
2018-09-29T02:38:15.589Z,1.82
2018-09-29T02:40:45.671Z,2.58
2018-09-29T02:43:15.825Z,2.40
2018-09-29T02:45:45.883Z,2.83
2018-09-29T02:48:16.072Z,2.22
2018-09-29T02:50:46.258Z,2.10
2018-09-29T02:53:16.435Z,2.10
2018-09-29T02:55:46.525Z,2.33
2018-09-29T02:58:16.702Z,1.87
2018-09-29T03:00:46.746Z,2.30
2018-09-29T03:03:16.793Z,2.10
2018-09-29T03:05:46.828Z,2.12
2018-09-29T03:08:16.932Z,2.17
2018-09-29T03:10:47.031Z,2.37
2018-09-29T03:13:17.113Z,1.80
2018-09-29T03:15:47.087Z,1.75
2018-09-29T03:18:17.109Z,2.33
2018-09-29T03:20:47.083Z,1.95
2018-09-29T03:23:17.176Z,2.30
2018-09-29T03:25:47.308Z,2.30
2018-09-29T03:28:17.313Z,2.10
2018-09-29T03:30:47.362Z,2.08
2018-09-29T03:33:17.424Z,2.25
2018-09-29T03:35:47.448Z,3.05
2018-09-29T03:38:17.798Z,2.10
2018-09-29T03:40:47.770Z,2.08
2018-09-29T03:43:17.781Z,2.00
2018-09-29T03:45:47.838Z,2.37
2018-09-29T03:48:18.015Z,2.80
2018-09-29T03:50:48.017Z,2.17
2018-09-29T03:53:18.143Z,2.22
2018-09-29T03:55:48.330Z,1.80
2018-09-29T03:58:18.405Z,1.90
2018-09-29T04:00:48.568Z,2.20
2018-09-29T04:03:18.680Z,2.37
2018-09-29T04:05:48.825Z,2.45
2018-09-29T04:08:18.944Z,2.62
2018-09-29T04:10:49.037Z,3.00
2018-09-29T04:13:19.034Z,2.45
2018-09-29T04:15:49.117Z,2.25
2018-09-29T04:18:19.221Z,2.10
2018-09-29T04:20:49.444Z,2.25
2018-09-29T04:23:19.488Z,1.98
2018-09-29T04:25:49.568Z,2.55
2018-09-29T04:28:19.649Z,2.58
2018-09-29T04:30:49.827Z,2.62
2018-09-29T04:33:19.911Z,2.30
2018-09-29T04:35:49.958Z,2.20
2018-09-29T04:38:20.059Z,2.50
2018-09-29T04:40:50.119Z,2.10
2018-09-29T04:43:20.268Z,2.55
2018-09-29T04:45:50.319Z,2.27
2018-09-29T04:48:20.512Z,2.35
2018-09-29T04:50:50.696Z,2.33
2018-09-29T04:53:20.767Z,2.08
2018-09-29T04:55:50.844Z,2.22
2018-09-29T04:58:21.008Z,2.20
2018-09-29T05:00:51.287Z,2.75
2018-09-29T05:03:21.324Z,2.35
2018-09-29T05:05:51.777Z,2.40
2018-09-29T05:08:21.893Z,2.55
2018-09-29T05:10:52.039Z,2.35
2018-09-29T05:13:22.102Z,2.42
2018-09-29T05:15:52.170Z,2.58
2018-09-29T05:18:22.241Z,2.87
2018-09-29T05:20:52.438Z,3.92
2018-09-29T05:23:22.776Z,2.80
2018-09-29T05:25:52.769Z,2.17
2018-09-29T05:28:22.886Z,2.00
2018-09-29T05:30:53.102Z,2.30
2018-09-29T05:33:23.182Z,2.17
2018-09-29T05:35:53.329Z,2.60
2018-09-29T05:38:23.412Z,2.50
2018-09-29T05:40:53.456Z,2.33
2018-09-29T05:43:23.580Z,2.33
2018-09-29T05:45:53.684Z,2.35
2018-09-29T05:48:23.962Z,2.10
2018-09-29T05:50:53.959Z,2.33
2018-09-29T05:53:24.030Z,2.22
2018-09-29T05:55:54.355Z,2.08
2018-09-29T05:58:24.714Z,2.20
2018-09-29T06:00:54.808Z,2.05
2018-09-29T06:03:24.849Z,2.42
2018-09-29T06:05:55.034Z,2.60
2018-09-29T06:08:25.136Z,2.30
2018-09-29T06:10:55.208Z,2.25
2018-09-29T06:13:25.308Z,2.80
2018-09-29T06:15:55.372Z,2.20
2018-09-29T06:18:25.430Z,2.72
2018-09-29T06:20:55.584Z,2.27
2018-09-29T06:23:25.724Z,2.40
2018-09-29T06:25:55.986Z,2.27
2018-09-29T06:28:26.143Z,2.45
2018-09-29T06:30:56.190Z,2.77
2018-09-29T06:33:26.345Z,2.27
2018-09-29T06:35:56.535Z,2.37
2018-09-29T06:38:26.619Z,1.95
2018-09-29T06:40:56.800Z,2.35
2018-09-29T06:43:26.926Z,1.92
2018-09-29T06:45:57.038Z,2.47
2018-09-29T06:48:27.182Z,2.17
2018-09-29T06:50:57.249Z,2.47
2018-09-29T06:53:27.293Z,2.20
2018-09-29T06:55:57.384Z,2.22
2018-09-29T06:58:27.553Z,2.08
2018-09-29T07:00:57.626Z,2.60
2018-09-29T07:03:27.931Z,2.62
2018-09-29T07:05:58.042Z,2.55
2018-09-29T07:08:28.333Z,3.05
2018-09-29T07:10:58.409Z,2.60
2018-09-29T07:13:28.469Z,2.30
2018-09-29T07:15:58.487Z,2.40
2018-09-29T07:18:28.587Z,2.50
2018-09-29T07:20:58.686Z,2.35
2018-09-29T07:23:28.795Z,2.47
2018-09-29T07:25:58.942Z,2.37
2018-09-29T07:28:29.072Z,2.45
2018-09-29T07:30:59.187Z,2.20
2018-09-29T07:33:29.332Z,2.15
2018-09-29T07:35:59.399Z,2.25
2018-09-29T07:38:29.516Z,2.15
2018-09-29T07:40:59.547Z,2.92
2018-09-29T07:43:29.626Z,2.67
2018-09-29T07:45:59.880Z,2.17
2018-09-29T07:48:29.924Z,2.35
2018-09-29T07:51:00.116Z,2.10
2018-09-29T07:53:36.866Z,2.60
2018-09-29T07:56:07.134Z,2.40
2018-09-29T07:58:37.201Z,2.27
2018-09-29T08:01:07.554Z,2.17
2018-09-29T08:03:37.629Z,2.47
2018-09-29T08:06:07.846Z,2.52
2018-09-29T08:08:37.893Z,2.20
2018-09-29T08:11:07.966Z,2.10
2018-09-29T08:13:38.129Z,2.00
2018-09-29T08:16:08.600Z,2.22
2018-09-29T08:18:38.733Z,2.10
2018-09-29T08:21:08.838Z,2.20
2018-09-29T08:23:39.094Z,2.05
2018-09-29T08:26:09.287Z,2.30
2018-09-29T08:28:39.421Z,2.20
2018-09-29T08:31:09.565Z,2.08
2018-09-29T08:33:39.818Z,2.00
2018-09-29T08:36:09.877Z,2.85
2018-09-29T08:38:40.045Z,2.02
2018-09-29T08:41:10.224Z,2.55
2018-09-29T08:43:40.270Z,2.80
2018-09-29T08:46:10.338Z,2.50
2018-09-29T08:48:40.508Z,2.87
2018-09-29T08:51:10.771Z,2.87
2018-09-29T08:53:40.945Z,2.50
2018-09-29T08:56:11.068Z,2.40
2018-09-29T08:58:41.285Z,2.12
2018-09-29T09:01:11.493Z,2.65
2018-09-29T09:03:41.613Z,2.20
2018-09-29T09:06:11.815Z,2.40
2018-09-29T09:08:42.007Z,2.58
2018-09-29T09:11:12.162Z,2.60
2018-09-29T09:13:42.278Z,2.40
2018-09-29T09:16:12.438Z,2.10
2018-09-29T09:18:42.757Z,2.05
2018-09-29T09:21:13.088Z,2.00
2018-09-29T09:23:43.624Z,2.05
2018-09-29T09:26:13.646Z,2.20
2018-09-29T09:28:43.723Z,2.60
2018-09-29T09:31:13.885Z,2.37
2018-09-29T09:33:44.184Z,2.17
2018-09-29T09:36:14.481Z,2.42
2018-09-29T09:38:44.688Z,2.00
2018-09-29T09:41:15.068Z,2.00
2018-09-29T09:43:45.296Z,2.00
2018-09-29T09:46:15.470Z,2.20
2018-09-29T09:48:45.593Z,1.90
2018-09-29T09:51:15.817Z,2.00
2018-09-29T09:53:45.897Z,2.45
2018-09-29T09:56:15.949Z,1.80
2018-09-29T09:58:46.186Z,1.77
2018-09-29T10:01:21.905Z,1.85
2018-09-29T10:03:52.063Z,1.98
2018-09-29T10:06:22.183Z,1.70
2018-09-29T10:08:52.344Z,2.08
2018-09-29T10:17:34.303Z,2.50
2018-09-29T10:20:04.713Z,2.75
2018-09-29T10:22:34.758Z,2.60
2018-09-29T10:25:04.959Z,2.98
2018-09-29T10:27:35.284Z,2.20
2018-09-29T10:30:05.942Z,2.45
2018-09-29T10:32:36.016Z,2.37
2018-09-29T10:35:06.069Z,2.62
2018-09-29T10:37:36.152Z,2.17
2018-09-29T10:40:06.521Z,1.95
2018-09-29T10:42:36.637Z,2.02
2018-09-29T10:45:06.847Z,1.98
2018-09-29T10:47:37.148Z,1.98
2018-09-29T10:50:07.277Z,1.90
2018-09-29T10:52:37.367Z,2.10
2018-09-29T10:55:07.650Z,2.35
2018-09-29T10:57:38.033Z,2.00
2018-09-29T11:00:08.250Z,2.05
2018-09-29T11:02:38.374Z,1.95
2018-09-29T11:05:08.713Z,1.85
2018-09-29T11:07:38.749Z,1.82
2018-09-29T11:10:08.839Z,1.82
2018-09-29T11:12:38.982Z,1.82
2018-09-29T11:15:09.175Z,1.80
2018-09-29T11:17:39.428Z,1.82
2018-09-29T11:20:09.597Z,1.75
2018-09-29T11:22:39.690Z,1.70
2018-09-29T11:25:09.864Z,1.60
2018-09-29T11:27:40.243Z,3.15
2018-09-29T11:30:10.506Z,2.00
2018-09-29T11:32:40.587Z,1.82
2018-09-29T11:35:10.724Z,1.40
2018-09-29T11:37:40.928Z,1.70
2018-09-29T11:40:11.157Z,1.80
2018-09-29T11:42:41.199Z,1.50
2018-09-29T11:45:11.296Z,1.40
2018-09-29T11:47:41.453Z,1.60
2018-09-29T11:50:11.551Z,1.75
2018-09-29T11:52:41.623Z,2.12
2018-09-29T11:55:11.706Z,2.15
2018-09-29T11:57:41.877Z,2.20
2018-09-29T12:00:12.165Z,1.90
2018-09-29T12:02:42.266Z,1.60
2018-09-29T12:05:12.452Z,1.67
2018-09-29T12:07:42.918Z,1.45
2018-09-29T12:10:13.024Z,1.27
2018-09-29T12:12:43.079Z,1.37
2018-09-29T12:15:13.275Z,1.40
2018-09-29T12:17:43.417Z,1.30
2018-09-29T12:20:13.595Z,1.60
2018-09-29T12:22:43.693Z,1.50
2018-09-29T12:25:13.778Z,2.22
2018-09-29T12:27:43.888Z,2.20
2018-09-29T12:30:13.960Z,1.70
2018-09-29T12:32:44.010Z,1.75
2018-09-29T12:35:14.154Z,1.82
2018-09-29T12:37:44.335Z,1.75
2018-09-29T12:40:14.385Z,1.77
2018-09-29T12:42:44.500Z,1.60
2018-09-29T12:47:29.103Z,2.40
2018-09-29T12:49:59.132Z,1.80
2018-09-29T12:52:29.301Z,1.70
2018-09-29T12:54:59.461Z,1.90
2018-09-29T12:57:29.528Z,1.67
2018-09-29T12:59:59.924Z,1.27
2018-09-29T13:02:30.138Z,1.87
2018-09-29T13:05:00.210Z,1.90
2018-09-29T13:07:30.229Z,1.95
2018-09-29T13:10:00.315Z,1.70
2018-09-29T13:12:30.431Z,1.70
2018-09-29T13:15:00.722Z,1.72
2018-09-29T13:17:30.971Z,2.00
2018-09-29T13:20:01.096Z,1.60
2018-09-29T13:22:31.152Z,2.12
2018-09-29T13:25:01.262Z,1.90
2018-09-29T13:27:31.305Z,2.10
2018-09-29T13:30:01.324Z,1.90
2018-09-29T13:32:31.434Z,1.90
2018-09-29T13:35:01.582Z,1.80
2018-09-29T13:37:31.713Z,1.80
2018-09-29T13:40:01.803Z,1.50
2018-09-29T13:42:31.906Z,1.30
2018-09-29T13:45:02.140Z,1.40
2018-09-29T13:47:32.347Z,1.60
2018-09-29T13:50:02.458Z,1.40
2018-09-29T13:52:32.526Z,1.70
2018-09-29T13:55:02.549Z,2.02
2018-09-29T13:57:32.608Z,1.60
2018-09-29T14:00:02.945Z,1.92
2018-09-29T14:02:33.088Z,1.70
2018-09-29T14:05:03.360Z,1.45
2018-09-29T14:07:33.536Z,1.90
2018-09-29T14:10:03.804Z,1.40
2018-09-29T14:12:33.981Z,1.60
2018-09-29T14:15:04.448Z,1.80
2018-09-29T14:17:34.594Z,1.92
2018-09-29T14:20:05.284Z,1.60
2018-09-29T14:22:35.358Z,1.40
2018-09-29T14:25:05.744Z,1.80
2018-09-29T14:27:35.804Z,1.50
2018-09-29T14:30:06.124Z,1.80
2018-09-29T14:32:36.174Z,1.40
2018-09-29T14:35:06.452Z,1.60
2018-09-29T14:37:36.581Z,1.52
2018-09-29T14:40:07.109Z,1.52
2018-09-29T14:42:37.300Z,1.55
2018-09-29T14:45:07.527Z,1.75
2018-09-29T14:47:37.599Z,1.50
2018-09-29T14:50:08.062Z,1.95
2018-09-29T14:52:38.186Z,1.42
2018-09-29T14:55:08.389Z,1.50
2018-09-29T14:57:38.540Z,1.50
2018-09-29T15:00:08.663Z,1.50
2018-09-29T15:02:38.681Z,1.30
2018-09-29T15:05:08.924Z,1.40
2018-09-29T15:07:38.986Z,1.52
2018-09-29T15:10:09.171Z,1.57
2018-09-29T15:12:39.346Z,1.60
2018-09-29T15:15:09.587Z,1.32
2018-09-29T15:17:39.825Z,1.25
2018-09-29T15:20:09.976Z,1.35
2018-09-29T15:22:40.065Z,1.30
2018-09-29T15:25:10.323Z,1.45
2018-09-29T15:27:40.620Z,1.40
2018-09-29T15:30:10.853Z,1.35
2018-09-29T15:32:40.924Z,1.25
2018-09-29T15:35:11.002Z,1.27
2018-09-29T15:37:41.171Z,1.37
2018-09-29T15:40:11.576Z,1.52
2018-09-29T15:42:41.707Z,1.35
2018-09-29T15:45:11.778Z,1.45
2018-09-29T15:47:41.987Z,1.40
2018-09-29T15:50:12.239Z,1.35
2018-09-29T15:52:42.421Z,1.05
2018-09-29T15:55:12.542Z,1.30
2018-09-29T15:57:42.595Z,1.32
2018-09-29T16:00:12.640Z,1.47
2018-09-29T16:02:42.798Z,1.37
2018-09-29T16:05:12.998Z,1.30
2018-09-29T16:07:43.404Z,1.47
2018-09-29T16:10:13.547Z,1.42
2018-09-29T16:12:43.680Z,1.60
2018-09-29T16:15:13.806Z,1.77
2018-09-29T16:17:44.031Z,1.30
2018-09-29T16:20:14.166Z,1.37
2018-09-29T16:22:44.234Z,1.70
2018-09-29T16:25:14.249Z,1.50
2018-09-29T16:27:44.644Z,1.30
2018-09-29T16:30:21.440Z,1.30
2018-09-29T16:32:51.540Z,1.57
2018-09-29T16:35:21.587Z,1.67
2018-09-29T16:37:51.614Z,1.30
2018-09-29T16:40:21.747Z,1.30
2018-09-29T16:42:51.858Z,1.32
2018-09-29T16:45:22.072Z,1.65
2018-09-29T16:47:52.154Z,1.60
2018-09-29T16:50:22.193Z,1.30
2018-09-29T16:52:52.266Z,1.45
2018-09-29T16:55:22.361Z,1.70
2018-09-29T16:57:52.423Z,1.70
2018-09-29T17:00:22.480Z,1.22
2018-09-29T17:02:52.715Z,1.42
2018-09-29T17:05:22.993Z,1.25
2018-09-29T17:07:53.458Z,1.30
2018-09-29T17:10:23.594Z,1.70
2018-09-29T17:12:53.651Z,1.30
2018-09-29T17:15:23.750Z,1.35
2018-09-29T17:17:53.901Z,1.67
2018-09-29T17:20:23.940Z,1.27
2018-09-29T17:22:54.092Z,1.32
2018-09-29T17:25:24.365Z,1.20
2018-09-29T17:27:54.455Z,1.32
2018-09-29T17:30:24.509Z,1.45
2018-09-29T17:32:54.609Z,1.30
2018-09-29T17:35:24.679Z,1.47
2018-09-29T17:37:54.754Z,1.30
2018-09-29T17:40:25.043Z,1.30
2018-09-29T17:42:55.069Z,1.87
2018-09-29T17:45:25.184Z,1.52
2018-09-29T17:47:55.178Z,1.37
2018-09-29T17:50:25.206Z,1.40
2018-09-29T17:52:55.277Z,1.30
2018-09-29T17:55:25.367Z,1.42
2018-09-29T17:58:02.023Z,1.40
2018-09-29T18:00:32.109Z,1.40
2018-09-29T18:03:02.215Z,1.22
2018-09-29T18:05:38.907Z,1.35
2018-09-29T18:08:09.057Z,1.55
2018-09-29T18:10:39.129Z,1.37
2018-09-29T18:13:09.174Z,1.22
2018-09-29T18:15:39.299Z,1.37
2018-09-29T18:18:09.292Z,1.20
2018-09-29T18:20:39.410Z,1.40
2018-09-29T18:23:09.544Z,1.52
2018-09-29T18:25:39.718Z,1.40
2018-09-29T18:28:09.910Z,1.40
2018-09-29T18:30:40.001Z,1.35
2018-09-29T18:33:10.290Z,1.60
2018-09-29T18:35:40.450Z,1.60
2018-09-29T18:38:10.608Z,1.70
2018-09-29T18:40:40.773Z,1.45
2018-09-29T18:43:10.948Z,1.55
2018-09-29T18:45:41.072Z,1.57
2018-09-29T18:48:11.185Z,1.87
2018-09-29T18:50:41.374Z,1.70
2018-09-29T18:53:11.539Z,1.60
2018-09-29T18:55:41.619Z,1.70
2018-09-29T18:58:11.765Z,1.50
2018-09-29T19:00:41.880Z,1.60
2018-09-29T19:03:12.040Z,1.60
2018-09-29T19:05:42.194Z,1.72
2018-09-29T19:08:12.308Z,1.55
2018-09-29T19:10:42.429Z,1.50
2018-09-29T19:13:12.558Z,1.92
2018-09-29T19:15:42.671Z,1.60
2018-09-29T19:18:12.786Z,2.10
2018-09-29T19:20:43.166Z,1.80
2018-09-29T19:23:13.609Z,1.70
2018-09-29T19:25:43.713Z,1.35
2018-09-29T19:28:13.828Z,2.05
2018-09-29T19:30:50.422Z,2.42
2018-09-29T19:33:20.949Z,1.90
2018-09-29T19:35:51.020Z,2.00
2018-09-29T19:38:21.081Z,1.62
2018-09-29T19:40:51.209Z,2.37
2018-09-29T19:43:21.684Z,2.00
2018-09-29T19:45:51.845Z,1.80
2018-09-29T19:48:22.051Z,2.08
2018-09-29T19:50:52.325Z,2.27
2018-09-29T19:53:22.520Z,1.90
2018-09-29T19:55:52.715Z,1.80
2018-09-29T19:58:22.886Z,2.00
2018-09-29T20:00:53.126Z,2.15
2018-09-29T20:03:23.217Z,1.95
2018-09-29T20:05:53.313Z,2.30
2018-09-29T20:08:23.972Z,2.17
2018-09-29T20:10:54.152Z,2.00
2018-09-29T20:13:24.214Z,2.30
2018-09-29T20:15:54.252Z,2.17
2018-09-29T20:18:24.244Z,1.92
2018-09-29T20:20:54.181Z,2.30
2018-09-29T20:23:24.177Z,2.10
2018-09-29T20:25:54.260Z,2.25
2018-09-29T20:28:24.306Z,3.05
2018-09-29T20:30:54.373Z,2.40
2018-09-29T20:33:24.389Z,2.85
2018-09-29T20:35:54.360Z,2.58
2018-09-29T20:38:24.486Z,3.12
2018-09-29T20:40:54.561Z,3.35
2018-09-29T20:43:24.640Z,3.58
2018-09-29T20:45:54.828Z,3.60
2018-09-29T20:48:24.877Z,3.15
2018-09-29T20:50:54.951Z,3.70
2018-09-29T20:53:25.114Z,3.55
2018-09-29T20:55:55.268Z,4.00
2018-09-29T20:58:25.394Z,3.77
2018-09-29T21:00:55.564Z,3.72
2018-09-29T21:03:25.751Z,4.17
2018-09-29T21:05:55.826Z,4.42
2018-09-29T21:08:25.875Z,5.15
2018-09-29T21:10:56.068Z,4.78
2018-09-29T21:13:26.336Z,4.67
2018-09-29T21:15:56.301Z,4.70
2018-09-29T21:18:26.348Z,4.78
2018-09-29T21:20:56.363Z,4.90
2018-09-29T21:23:26.547Z,5.67
2018-09-29T21:25:56.640Z,5.22
2018-09-29T21:28:26.861Z,4.87
2018-09-29T21:30:57.088Z,4.62
2018-09-29T21:33:27.356Z,5.28
2018-09-29T21:35:57.474Z,4.72
2018-09-29T21:38:27.593Z,4.72
2018-09-29T21:40:57.628Z,5.03
2018-09-29T21:43:27.736Z,5.22
2018-09-29T21:45:57.855Z,5.20
2018-09-29T21:48:27.984Z,5.10
2018-09-29T21:50:58.080Z,4.75
2018-09-29T21:53:28.180Z,5.17
2018-09-29T21:55:58.276Z,4.78
2018-09-29T21:58:28.313Z,5.25
2018-09-29T22:01:02.724Z,5.60
2018-09-29T22:03:32.846Z,5.15
2018-09-29T22:06:03.036Z,4.78
2018-09-29T22:08:33.093Z,5.17
2018-09-29T22:11:03.173Z,5.30
2018-09-29T22:13:33.239Z,5.35
2018-09-29T22:16:03.320Z,5.05
2018-09-29T22:18:33.380Z,5.25
2018-09-29T22:21:03.446Z,5.25
2018-09-29T22:23:33.501Z,5.37
2018-09-29T22:26:03.660Z,6.40
2018-09-29T22:28:33.955Z,5.03
2018-09-29T22:31:04.103Z,5.62
2018-09-29T22:33:34.287Z,5.22
2018-09-29T22:36:04.748Z,5.87
2018-09-29T22:38:34.866Z,5.05
2018-09-29T22:41:05.024Z,5.42
2018-09-29T22:43:35.114Z,4.92
2018-09-29T22:46:05.181Z,5.80
2018-09-29T22:48:35.260Z,5.05
2018-09-29T22:51:05.340Z,5.40
2018-09-29T22:53:35.392Z,6.28
2018-09-29T22:56:05.613Z,5.80
2018-09-29T22:58:37.172Z,6.10
2018-09-29T23:01:07.753Z,6.15
2018-09-29T23:03:37.826Z,6.72
2018-09-29T23:06:07.920Z,6.42
2018-09-29T23:08:38.115Z,5.95
2018-09-29T23:11:08.369Z,5.65
2018-09-29T23:13:38.430Z,6.30
2018-09-29T23:16:08.797Z,6.05
2018-09-29T23:18:38.850Z,6.53
2018-09-29T23:21:08.989Z,5.95
2018-09-29T23:23:39.019Z,6.33
2018-09-29T23:26:09.004Z,5.78
2018-09-29T23:28:39.002Z,6.37
2018-09-29T23:31:09.093Z,6.35
2018-09-29T23:33:39.092Z,6.05
2018-09-29T23:36:09.129Z,6.30
2018-09-29T23:38:39.157Z,6.22
2018-09-29T23:41:09.267Z,6.40
2018-09-29T23:43:39.428Z,6.03
2018-09-29T23:46:09.545Z,6.28
2018-09-29T23:48:39.692Z,5.87
2018-09-29T23:51:09.755Z,6.00
2018-09-29T23:53:39.862Z,5.58
2018-09-29T23:56:09.963Z,6.45
2018-09-29T23:58:40.001Z,6.12
